Estación Meteorológica Peña el Pijo (Robertgarden) [ 01/30/23 14:09:13 CET ]

Fecha Hora Presion(HPa) Temp (°C) Humedad % Rocio (°C) Viento ( m/s) Direccion Lluvia 1Hora(mm) Lluvia 24H(mm) LLuvia Total(mm)
2010-Nov-27 01:01:13 996.200 2.2 88 0.4         6.21
2010-Nov-27 02:03:09 995.600 2.0 90 0.5         6.21
2010-Nov-27 03:01:14 995.200 1.9 90 0.4         6.21
2010-Nov-27 04:01:14 994.900 2.1 91 0.8         6.21
2010-Nov-27 05:01:13 994.400 2.1 92 0.9         6.21
2010-Nov-27 06:01:16 993.900 1.9 92 0.7         6.21
2010-Nov-27 07:01:14 993.600 2.3 92 1.1         6.21
2010-Nov-27 08:01:14 993.500 2.4 93 1.4         6.21
2010-Nov-27 09:01:14 993.800 2.6 93 1.6         6.21
2010-Nov-27 10:01:14 993.700 2.8 93 1.8         6.21
2010-Nov-27 11:01:16 993.800 3.4 93 2.4         6.21
2010-Nov-27 12:01:15 993.300 4.1 93 3.0         6.21
2010-Nov-27 13:01:11 992.400 4.2 92 3.0         6.21
2010-Nov-27 14:01:17 991.400 4.3 92 3.1         6.21
2010-Nov-27 15:01:13 990.600 4.1 93 3.0         6.21
2010-Nov-27 16:01:12 990.200 3.8 93 2.8         6.21
2010-Nov-27 17:01:12 990.000 3.5 93 2.5         6.21
2010-Nov-27 18:01:12 990.000 3.4 93 2.4         6.21
2010-Nov-27 19:01:15 989.800 3.3 94 2.4         6.21
2010-Nov-27 20:01:14 990.000 3.1 94 2.2         6.21
2010-Nov-27 21:01:14 989.700 2.6 94 1.7         6.21
2010-Nov-27 22:01:12 989.600 2.2 94 1.3         6.21
2010-Nov-27 23:01:11 989.900 1.3 93 0.2         6.21

Temperatura Máxima:    Temperatura Mínima:
Presión Máxima:996.200 Hpa    Presión Mínima:989.600 Hpa


Volver